Time;durP1;ratioP1;P1;durP2;ratioP2;P2;SDS_P1;SDS_P2;PMS_P1;PMS_P2;Temp;Humidity;BMP_temperature;BMP_pressure;BME280_temperature;BME280_humidity;BME280_pressure;Samples;Min_cycle;Max_cycle;Signal;HPM_P1;HPM_P2
2024/01/11 00:02:07;;;;;;;31.23;15.25;;;;;;;-5.26;100.00;103152.13;5048650;28;20036;-73
2024/01/11 00:04:33;;;;;;;28.98;15.32;;;;;;;-5.35;100.00;103137.59;5048854;28;20036;-73
2024/01/11 00:06:58;;;;;;;29.88;14.18;;;;;;;-5.31;100.00;103140.09;5048768;28;20035;-73
2024/01/11 00:09:23;;;;;;;29.60;14.40;;;;;;;-5.30;100.00;103143.53;5048816;28;20074;-73
2024/01/11 00:11:49;;;;;;;30.40;15.48;;;;;;;-5.37;100.00;103140.25;5048607;28;20067;-73
2024/01/11 00:14:14;;;;;;;27.30;12.05;;;;;;;-5.32;100.00;103154.00;5048665;28;20052;-73
2024/01/11 00:16:41;;;;;;;27.77;14.38;;;;;;;-5.32;100.00;103153.09;5048765;28;20040;-73
2024/01/11 00:19:06;;;;;;;31.20;14.57;;;;;;;-5.36;100.00;103143.69;5048653;28;20033;-73
2024/01/11 00:21:31;;;;;;;28.77;14.65;;;;;;;-5.32;100.00;103148.78;5048706;28;20051;-73
2024/01/11 00:23:57;;;;;;;30.65;14.98;;;;;;;-5.32;100.00;103148.78;5048634;28;20055;-73
2024/01/11 00:26:22;;;;;;;33.25;15.85;;;;;;;-5.34;100.00;103141.91;5048771;28;20139;-73
2024/01/11 00:28:47;;;;;;;33.05;14.52;;;;;;;-5.36;100.00;103136.72;5047262;28;20068;-73
2024/01/11 00:31:13;;;;;;;33.03;15.65;;;;;;;-5.35;100.00;103151.44;5030618;28;20040;-73
2024/01/11 00:33:39;;;;;;;34.17;15.85;;;;;;;-5.38;100.00;103151.50;5048397;28;20036;-73
2024/01/11 00:36:04;;;;;;;28.63;13.50;;;;;;;-5.36;100.00;103143.69;5048272;28;20037;-73
2024/01/11 00:38:30;;;;;;;29.00;15.77;;;;;;;-5.38;100.00;103145.47;5048540;28;20037;-73
2024/01/11 00:40:55;;;;;;;28.90;15.95;;;;;;;-5.45;100.00;103142.13;5048419;28;20384;-73
2024/01/11 00:43:20;;;;;;;33.25;14.77;;;;;;;-5.40;100.00;103155.88;5048553;28;20392;-73
2024/01/11 00:45:46;;;;;;;27.00;14.23;;;;;;;-5.39;100.00;103156.78;5047164;28;20349;-73
2024/01/11 00:48:12;;;;;;;31.25;15.50;;;;;;;-5.40;100.00;103157.63;5049131;28;20384;-73
2024/01/11 00:50:37;;;;;;;26.63;12.80;;;;;;;-5.41;100.00;103150.75;5050941;28;20037;-73
2024/01/11 00:53:03;;;;;;;23.77;11.43;;;;;;;-5.46;100.00;103144.78;5052285;28;20028;-73
2024/01/11 00:55:28;;;;;;;28.63;14.35;;;;;;;-5.49;100.00;103137.06;5050658;28;20033;-73
2024/01/11 00:57:54;;;;;;;31.67;15.70;;;;;;;-5.47;100.00;103143.94;5052207;28;20491;-73
2024/01/11 01:00:19;;;;;;;31.77;15.77;;;;;;;-5.53;100.00;103131.94;5050510;28;20509;-73
2024/01/11 01:02:44;;;;;;;32.85;15.88;;;;;;;-5.54;100.00;103137.19;5052039;28;20089;-73
2024/01/11 01:05:10;;;;;;;29.02;14.40;;;;;;;-5.52;100.00;103148.41;5052047;28;20095;-73
2024/01/11 01:07:35;;;;;;;29.40;15.85;;;;;;;-5.52;100.00;103145.78;5051842;28;20450;-73
2024/01/11 01:10:01;;;;;;;26.65;14.82;;;;;;;-5.56;100.00;103146.75;5051729;28;20064;-73
2024/01/11 01:12:28;;;;;;;31.85;15.93;;;;;;;-5.55;100.00;103154.53;5050999;28;20067;-73
2024/01/11 01:14:54;;;;;;;34.17;16.33;;;;;;;-5.58;100.00;103149.41;5052406;28;20476;-73
2024/01/11 01:17:19;;;;;;;32.53;14.40;;;;;;;-5.65;100.00;103152.16;5051667;28;20036;-73
2024/01/11 01:19:44;;;;;;;28.65;14.65;;;;;;;-5.63;100.00;103156.44;5051786;28;20029;-73
2024/01/11 01:22:10;;;;;;;33.95;14.98;;;;;;;-5.62;100.00;103157.28;5051606;28;20032;-73
2024/01/11 01:24:36;;;;;;;33.65;16.88;;;;;;;-5.65;100.00;103167.75;5050409;28;20048;-73
2024/01/11 01:27:01;;;;;;;31.25;13.45;;;;;;;-5.69;100.00;103166.13;5051526;28;20041;-73
2024/01/11 01:29:27;;;;;;;28.25;13.45;;;;;;;-5.72;100.00;103165.28;5050106;28;20392;-73
2024/01/11 01:31:52;;;;;;;31.38;13.88;;;;;;;-5.72;100.00;103174.84;5051483;28;20055;-73
2024/01/11 01:34:18;;;;;;;30.25;14.20;;;;;;;-5.76;100.00;103174.06;5051305;28;20032;-73
2024/01/11 01:36:43;;;;;;;30.35;15.18;;;;;;;-5.77;100.00;103176.69;5051319;28;20036;-73
2024/01/11 01:39:09;;;;;;;27.05;14.95;;;;;;;-5.80;100.00;103172.41;5051237;28;20028;-73
2024/01/11 01:41:34;;;;;;;32.38;14.00;;;;;;;-5.80;100.00;103175.00;5051379;28;20115;-73
2024/01/11 01:43:59;;;;;;;33.17;15.52;;;;;;;-5.80;100.00;103176.75;5033427;28;20116;-73
2024/01/11 01:46:27;;;;;;;27.75;15.30;;;;;;;-5.81;100.00;103181.09;5051180;28;20491;-73
2024/01/11 01:48:54;;;;;;;36.88;17.58;;;;;;;-5.82;100.00;103181.13;5051233;28;20503;-73
2024/01/11 01:51:20;;;;;;;34.50;15.15;;;;;;;-5.85;100.00;103192.44;5051166;28;20066;-73
2024/01/11 01:53:46;;;;;;;27.80;13.57;;;;;;;-5.88;100.00;103194.25;5051163;28;20037;-75
2024/01/11 01:56:12;;;;;;;32.17;16.73;;;;;;;-5.90;100.00;103191.66;5051332;28;20554;-75
2024/01/11 01:58:38;;;;;;;32.03;15.52;;;;;;;-5.90;100.00;103188.22;5051296;28;20021;-75
2024/01/11 02:01:03;;;;;;;31.15;16.63;;;;;;;-5.91;100.00;103191.72;5049849;28;20080;-75
2024/01/11 02:03:30;;;;;;;29.35;15.20;;;;;;;-6.00;100.00;103177.19;5049734;28;20044;-75
2024/01/11 02:05:56;;;;;;;28.88;15.07;;;;;;;-5.96;100.00;103187.50;5050805;28;20040;-75
2024/01/11 02:08:25;;;;;;;33.80;15.18;;;;;;;-5.97;100.00;103174.56;5050959;28;20025;-75
2024/01/11 02:10:51;;;;;;;28.33;13.88;;;;;;;-5.97;100.00;103179.75;5050840;28;20035;-75
2024/01/11 02:13:16;;;;;;;25.90;12.88;;;;;;;-5.99;100.00;103178.91;5050842;28;20163;-75
2024/01/11 02:15:42;;;;;;;30.15;15.35;;;;;;;-6.01;100.00;103180.69;5050687;28;20143;-75
2024/01/11 02:18:07;;;;;;;31.60;15.30;;;;;;;-6.11;100.00;103161.84;5050583;28;20114;-75
2024/01/11 02:20:33;;;;;;;31.50;16.95;;;;;;;-6.05;100.00;103195.50;5049431;28;20499;-76
2024/01/11 02:23:05;;;;;;;32.03;16.63;;;;;;;-6.11;100.00;103192.16;5049476;28;20543;-75
2024/01/11 02:25:30;;;;;;;30.00;13.70;;;;;;;-6.14;100.00;103187.03;5050904;28;20029;-75
2024/01/11 02:27:55;;;;;;;29.13;13.93;;;;;;;-6.14;100.00;103198.25;5050613;28;20483;-75
2024/01/11 02:30:21;;;;;;;28.38;16.45;;;;;;;-6.13;100.00;103194.78;5050405;28;20044;-75
2024/01/11 02:32:48;;;;;;;29.95;13.43;;;;;;;-6.13;100.00;103191.31;5050444;28;20036;-75
2024/01/11 02:35:18;;;;;;;30.40;12.95;;;;;;;-6.13;100.00;103191.31;5050246;28;20036;-75
2024/01/11 02:37:45;;;;;;;32.42;15.30;;;;;;;-6.12;100.00;103193.03;5050273;28;20040;-75
2024/01/11 02:40:13;;;;;;;33.05;14.93;;;;;;;-6.13;100.00;103189.59;5050329;28;20033;-75
2024/01/11 02:42:38;;;;;;;31.40;15.77;;;;;;;-6.13;100.00;103196.50;5049325;28;20413;-75
2024/01/11 02:45:04;;;;;;;31.25;15.32;;;;;;;-6.11;100.00;103187.81;5050207;28;20113;-75
2024/01/11 02:47:30;;;;;;;33.53;13.90;;;;;;;-6.13;100.00;103183.53;5050059;28;20036;-75
2024/01/11 02:49:56;;;;;;;31.98;16.85;;;;;;;-6.11;100.00;103184.34;5049890;28;20052;-76
2024/01/11 02:52:23;;;;;;;29.92;13.65;;;;;;;-6.13;100.00;103187.00;5048683;28;20091;-75
2024/01/11 02:54:48;;;;;;;30.75;15.13;;;;;;;-6.19;100.00;103184.50;5049901;28;20029;-76
2024/01/11 02:57:14;;;;;;;29.92;16.67;;;;;;;-6.19;100.00;103195.75;5049818;28;20411;-76
2024/01/11 02:59:40;;;;;;;33.78;15.95;;;;;;;-6.24;100.00;103194.97;5049566;28;20119;-76
2024/01/11 03:02:05;;;;;;;37.65;16.52;;;;;;;-6.26;100.00;103188.97;5049850;28;20031;-76
2024/01/11 03:04:31;;;;;;;27.48;13.65;;;;;;;-6.28;100.00;103188.16;5049765;28;20443;-75
2024/01/11 03:06:56;;;;;;;30.27;14.45;;;;;;;-6.34;100.00;103183.09;5049753;28;20485;-75
2024/01/11 03:09:21;;;;;;;32.28;17.50;;;;;;;-6.30;100.00;103189.91;5048240;28;20112;-75
2024/01/11 03:11:47;;;;;;;29.85;15.48;;;;;;;-6.31;100.00;103188.22;5049405;28;20032;-75
2024/01/11 03:14:12;;;;;;;30.85;16.92;;;;;;;-6.33;100.00;103189.13;5049528;28;20037;-75
2024/01/11 03:16:39;;;;;;;34.85;16.20;;;;;;;-6.48;100.00;103166.91;5049435;28;20044;-75
2024/01/11 03:19:05;;;;;;;28.15;13.68;;;;;;;-6.37;100.00;103187.47;5048047;28;20480;-75
2024/01/11 03:21:30;;;;;;;35.53;17.35;;;;;;;-6.38;100.00;103184.03;5049348;28;20052;-75
2024/01/11 03:23:56;;;;;;;30.10;15.75;;;;;;;-6.41;100.00;103189.28;5049465;28;20029;-75
2024/01/11 03:26:21;;;;;;;36.88;16.73;;;;;;;-6.49;100.00;103178.19;5049417;28;20033;-75
2024/01/11 03:28:46;;;;;;;27.95;15.40;;;;;;;-6.55;100.00;103168.78;5049357;28;20392;-75
2024/01/11 03:31:12;;;;;;;29.65;14.57;;;;;;;-6.52;100.00;103181.69;5049315;28;20104;-75
2024/01/11 03:33:37;;;;;;;30.67;13.70;;;;;;;-6.55;100.00;103183.47;5049184;28;20033;-75
2024/01/11 03:36:10;;;;;;;33.92;16.00;;;;;;;-6.60;100.00;103183.56;5049021;28;20994;-75
2024/01/11 03:38:35;;;;;;;31.35;14.68;;;;;;;-6.62;100.00;103178.41;5049227;28;20086;-75
2024/01/11 03:41:01;;;;;;;33.58;14.63;;;;;;;-6.64;100.00;103179.31;5049217;28;20040;-75
2024/01/11 03:43:27;;;;;;;34.92;15.68;;;;;;;-6.62;100.00;103178.41;5047713;28;20047;-75
2024/01/11 03:45:52;;;;;;;29.92;14.52;;;;;;;-6.62;100.00;103183.59;5049110;28;20025;-75
2024/01/11 03:48:17;;;;;;;31.30;17.30;;;;;;;-6.62;100.00;103182.75;5048990;28;20029;-75
2024/01/11 03:50:43;;;;;;;31.15;16.52;;;;;;;-6.61;100.00;103189.63;5049083;28;20485;-75
2024/01/11 03:53:08;;;;;;;29.20;15.27;;;;;;;-6.71;100.00;103173.38;5049121;28;20187;-75
2024/01/11 03:55:34;;;;;;;29.52;12.70;;;;;;;-6.63;100.00;103181.88;5048534;28;20061;-75
2024/01/11 03:57:59;;;;;;;31.95;15.70;;;;;;;-6.65;100.00;103175.00;5048972;28;20029;-75
2024/01/11 04:00:24;;;;;;;33.92;14.25;;;;;;;-6.64;100.00;103181.91;5048820;28;20057;-75
2024/01/11 04:02:50;;;;;;;30.65;14.25;;;;;;;-6.64;100.00;103193.13;5048726;28;20442;-75
2024/01/11 04:05:15;;;;;;;30.60;15.95;;;;;;;-6.72;100.00;103182.03;5048808;28;20068;-75
2024/01/11 04:07:41;;;;;;;28.08;13.75;;;;;;;-6.79;100.00;103185.63;5048865;28;20039;-75
2024/01/11 04:10:09;;;;;;;29.60;13.00;;;;;;;-6.72;100.00;103212.31;5047450;28;20107;-75
2024/01/11 04:12:35;;;;;;;27.38;12.85;;;;;;;-6.76;100.00;103214.09;5048708;28;20033;-75
2024/01/11 04:15:01;;;;;;;30.95;15.68;;;;;;;-6.71;100.00;103209.69;5048828;28;20036;-75
2024/01/11 04:17:26;;;;;;;30.70;13.75;;;;;;;-6.71;100.00;103214.88;5048514;28;20033;-76
2024/01/11 04:19:51;;;;;;;35.00;13.77;;;;;;;-6.69;100.00;103210.53;5048789;28;20025;-75
2024/01/11 04:22:17;;;;;;;26.20;12.88;;;;;;;-6.72;100.00;103197.59;5048787;28;20439;-75
2024/01/11 04:24:43;;;;;;;21.73;9.85;;;;;;;-6.67;100.00;103216.56;5050600;28;20454;-75
2024/01/11 04:27:08;;;;;;;29.70;12.93;;;;;;;-6.65;100.00;103217.38;5051569;28;20365;-75
2024/01/11 04:29:34;;;;;;;30.10;13.05;;;;;;;-6.69;100.00;103227.84;5052614;28;20123;-75
2024/01/11 04:31:59;;;;;;;22.02;9.23;;;;;;;-6.65;100.00;103237.31;5052717;28;20059;-75
2024/01/11 04:34:24;;;;;;;27.20;12.00;;;;;;;-6.70;100.00;103221.78;5051488;28;20669;-75
2024/01/11 04:36:50;;;;;;;25.38;12.30;;;;;;;-6.66;100.00;103217.41;5051345;28;20071;-76
2024/01/11 04:39:15;;;;;;;30.98;12.65;;;;;;;-6.71;100.00;103220.06;5052749;28;20021;-75
2024/01/11 04:41:41;;;;;;;22.20;11.07;;;;;;;-6.69;100.00;103207.06;5052429;28;20029;-75
2024/01/11 04:44:06;;;;;;;28.33;13.48;;;;;;;-6.73;100.00;103208.00;5052569;28;20454;-75
2024/01/11 04:46:32;;;;;;;26.08;13.10;;;;;;;-6.75;100.00;103227.94;5051079;28;20029;-75
2024/01/11 04:48:57;;;;;;;38.00;12.90;;;;;;;-6.70;100.00;103226.13;5052418;28;20060;-76
2024/01/11 04:51:23;;;;;;;27.70;13.57;;;;;;;-6.71;100.00;103232.19;5052313;28;20021;-76
2024/01/11 04:53:48;;;;;;;26.58;13.82;;;;;;;-6.75;100.00;103225.34;5051100;28;20036;-75
2024/01/11 04:56:15;;;;;;;26.33;12.98;;;;;;;-6.73;100.00;103228.75;5052005;28;20037;-76
2024/01/11 04:58:42;;;;;;;25.48;12.50;;;;;;;-6.76;100.00;103236.59;5051991;28;20032;-75
2024/01/11 05:01:15;;;;;;;26.60;12.77;;;;;;;-6.78;100.00;103246.16;5051825;28;20049;-76
2024/01/11 05:03:41;;;;;;;26.13;12.10;;;;;;;-6.81;100.00;103238.41;5050317;28;20465;-76
2024/01/11 05:06:07;;;;;;;29.08;12.88;;;;;;;-6.80;100.00;103246.19;5050851;28;20112;-76
2024/01/11 05:08:32;;;;;;;27.50;14.23;;;;;;;-6.82;100.00;103241.91;5051890;28;20051;-75
2024/01/11 05:10:57;;;;;;;31.55;14.75;;;;;;;-6.90;100.00;103235.09;5051971;28;20041;-76
2024/01/11 05:13:24;;;;;;;29.13;11.70;;;;;;;-6.86;100.00;103246.28;5051730;28;20107;-75
2024/01/11 05:15:49;;;;;;;25.92;13.30;;;;;;;-6.89;100.00;103244.59;5051883;28;20090;-75
2024/01/11 05:18:14;;;;;;;31.20;14.23;;;;;;;-6.95;100.00;103234.31;5050428;28;20028;-75
2024/01/11 05:20:40;;;;;;;29.45;12.73;;;;;;;-6.90;100.00;103249.81;5051810;28;20021;-76
2024/01/11 05:23:06;;;;;;;29.15;13.50;;;;;;;-6.90;100.00;103245.47;5051631;28;20436;-76
2024/01/11 05:25:35;;;;;;;24.35;11.85;;;;;;;-6.93;100.00;103245.53;5051613;28;20040;-76
2024/01/11 05:28:01;;;;;;;24.35;11.82;;;;;;;-6.91;100.00;103253.28;5051710;28;20036;-76
2024/01/11 05:30:27;;;;;;;25.13;11.20;;;;;;;-6.92;100.00;103261.94;5051386;28;20931;-76
2024/01/11 05:32:53;;;;;;;31.63;12.90;;;;;;;-6.94;100.00;103259.38;5051491;28;20476;-76
2024/01/11 05:35:18;;;;;;;24.25;12.38;;;;;;;-6.91;100.00;103266.25;5051330;28;20029;-76
2024/01/11 05:37:43;;;;;;;29.35;12.32;;;;;;;-6.92;100.00;103262.78;5051445;28;20035;-75
2024/01/11 05:40:09;;;;;;;26.75;12.07;;;;;;;-6.93;100.00;103262.84;5051405;28;20024;-75
2024/01/11 05:42:34;;;;;;;24.50;11.57;;;;;;;-6.94;100.00;103251.59;5051475;28;20449;-75
2024/01/11 05:44:59;;;;;;;24.85;11.55;;;;;;;-6.98;100.00;103247.31;5051015;28;20587;-75
2024/01/11 05:47:25;;;;;;;25.65;11.82;;;;;;;-6.95;100.00;103262.00;5051291;28;20112;-76
2024/01/11 05:49:50;;;;;;;26.42;12.02;;;;;;;-6.96;100.00;103261.13;5051128;28;20024;-75
2024/01/11 05:52:16;;;;;;;26.65;13.57;;;;;;;-6.96;100.00;103263.72;5051231;28;20384;-75
2024/01/11 05:54:41;;;;;;;25.58;12.10;;;;;;;-6.96;100.00;103268.06;5051140;28;20037;-76
2024/01/11 05:57:07;;;;;;;25.20;13.43;;;;;;;-6.98;100.00;103277.59;5051206;28;20492;-76
2024/01/11 05:59:33;;;;;;;32.78;15.52;;;;;;;-6.99;100.00;103281.09;5051017;28;20079;-76
2024/01/11 06:02:00;;;;;;;28.38;13.38;;;;;;;-6.98;100.00;103285.38;5050780;28;20535;-75
2024/01/11 06:04:25;;;;;;;26.45;12.07;;;;;;;-6.99;100.00;103291.47;5050908;28;20119;-75
2024/01/11 06:06:51;;;;;;;29.77;13.15;;;;;;;-6.98;100.00;103293.16;5050752;28;20395;-76
2024/01/11 06:09:16;;;;;;;26.92;13.32;;;;;;;-6.97;100.00;103287.94;5050933;28;20056;-75
2024/01/11 06:11:42;;;;;;;27.10;12.05;;;;;;;-6.98;100.00;103282.78;5050522;28;20079;-76
2024/01/11 06:14:07;;;;;;;25.55;11.82;;;;;;;-6.96;100.00;103274.09;5032931;28;20071;-75
2024/01/11 06:16:33;;;;;;;26.70;12.80;;;;;;;-7.05;100.00;103253.47;5050627;28;20124;-75
2024/01/11 06:18:58;;;;;;;24.90;13.27;;;;;;;-7.01;100.00;103286.28;5050548;28;20056;-75
2024/01/11 06:21:23;;;;;;;30.67;14.73;;;;;;;-7.06;100.00;103288.94;5050602;28;20154;-76
2024/01/11 06:23:49;;;;;;;29.58;13.50;;;;;;;-7.07;100.00;103283.78;5050344;28;20029;-76
2024/01/11 06:26:14;;;;;;;25.90;13.18;;;;;;;-7.11;100.00;103280.38;5050484;28;20033;-75
2024/01/11 06:28:39;;;;;;;27.13;13.45;;;;;;;-7.15;100.00;103272.66;5050387;28;20037;-76
2024/01/11 06:31:05;;;;;;;26.35;14.43;;;;;;;-7.20;100.00;103269.28;5050606;28;20032;-75
2024/01/11 06:33:32;;;;;;;24.15;12.00;;;;;;;-7.25;100.00;103286.66;5050324;28;20029;-76
2024/01/11 06:35:57;;;;;;;28.15;13.93;;;;;;;-7.34;100.00;103277.25;5050049;28;20495;-76
2024/01/11 06:38:22;;;;;;;30.80;14.00;;;;;;;-7.48;100.00;103269.66;5050356;28;20056;-75
2024/01/11 06:40:48;;;;;;;28.20;13.82;;;;;;;-7.37;100.00;103298.03;5050174;28;20059;-75
2024/01/11 06:43:14;;;;;;;27.73;13.60;;;;;;;-7.41;100.00;103301.53;5049714;28;20082;-75
2024/01/11 06:45:42;;;;;;;32.13;14.82;;;;;;;-7.47;100.00;103288.66;5049550;28;20383;-75
2024/01/11 06:48:07;;;;;;;28.67;15.02;;;;;;;-7.46;100.00;103311.97;5050029;28;20040;-75
2024/01/11 06:50:32;;;;;;;30.85;14.38;;;;;;;-7.51;100.00;103306.84;5048711;28;20045;-76
2024/01/11 06:52:58;;;;;;;23.80;12.63;;;;;;;-7.64;100.00;103279.38;5050080;28;20040;-75
2024/01/11 06:55:23;;;;;;;29.08;14.40;;;;;;;-7.48;100.00;103310.28;5049705;28;20041;-75
2024/01/11 06:57:48;;;;;;;28.73;14.02;;;;;;;-7.51;100.00;103301.66;5048451;28;20115;-75
2024/01/11 07:00:14;;;;;;;37.17;14.07;;;;;;;-7.50;100.00;103313.72;5048056;28;20105;-75
2024/01/11 07:02:40;;;;;;;76.90;36.90;;;;;;;-7.53;100.00;103318.09;5049836;28;20090;-75
2024/01/11 07:05:06;;;;;;;28.42;15.43;;;;;;;-7.53;100.00;103331.06;5049735;28;20067;-75
2024/01/11 07:07:32;;;;;;;28.27;12.63;;;;;;;-7.64;100.00;103344.13;5049530;28;20112;-75
2024/01/11 07:09:58;;;;;;;28.30;14.43;;;;;;;-7.63;100.00;103348.44;5049792;28;20079;-75
2024/01/11 07:12:23;;;;;;;26.45;14.18;;;;;;;-7.61;100.00;103338.91;5049441;28;20044;-75
2024/01/11 07:14:49;;;;;;;33.35;13.98;;;;;;;-7.60;100.00;103340.63;5049603;28;20060;-75
2024/01/11 07:17:14;;;;;;;36.00;15.43;;;;;;;-7.58;100.00;103335.44;5049403;28;20052;-75
2024/01/11 07:19:39;;;;;;;29.63;13.25;;;;;;;-7.57;100.00;103338.03;5049614;28;20025;-75
2024/01/11 07:22:04;;;;;;;25.08;14.23;;;;;;;-7.56;100.00;103344.06;5049168;28;20123;-75
2024/01/11 07:24:37;;;;;;;31.85;14.63;;;;;;;-7.56;100.00;103338.88;5049293;28;20025;-75
2024/01/11 07:27:04;;;;;;;28.45;14.45;;;;;;;-7.57;100.00;103347.50;5049177;28;20036;-76
2024/01/11 07:29:29;;;;;;;27.50;14.05;;;;;;;-7.57;100.00;103342.31;5049127;28;20532;-76
2024/01/11 07:31:54;;;;;;;28.60;14.40;;;;;;;-7.58;100.00;103346.66;5048567;28;20116;-76
2024/01/11 07:34:20;;;;;;;34.20;15.43;;;;;;;-7.58;100.00;103346.66;5048400;28;20086;-75
2024/01/11 07:36:45;;;;;;;28.40;13.80;;;;;;;-7.59;100.00;103338.91;5048130;28;20071;-75
2024/01/11 07:39:11;;;;;;;26.58;11.52;;;;;;;-7.71;100.00;103332.13;5046519;28;20558;-75
2024/01/11 07:41:36;;;;;;;26.65;13.85;;;;;;;-7.59;100.00;103354.47;5047980;28;20487;-75
2024/01/11 07:44:01;;;;;;;24.33;11.35;;;;;;;-7.60;100.00;103357.91;5048763;28;20111;-75
2024/01/11 07:46:26;;;;;;;25.98;12.82;;;;;;;-7.61;100.00;103357.06;5048766;28;20056;-75
2024/01/11 07:48:52;;;;;;;26.98;12.35;;;;;;;-7.60;100.00;103363.94;5049086;28;20115;-73
2024/01/11 07:51:18;;;;;;;28.35;14.38;;;;;;;-7.62;100.00;103357.06;5048604;28;20111;-72
2024/01/11 07:53:44;;;;;;;30.35;17.13;;;;;;;-7.66;100.00;103345.88;5048005;28;20048;-73
2024/01/11 07:56:09;;;;;;;25.40;11.23;;;;;;;-7.60;100.00;103338.03;5029316;28;20045;-73
2024/01/11 07:58:37;;;;;;;35.17;19.05;;;;;;;-7.63;100.00;103327.72;5046984;28;20045;-73
2024/01/11 08:01:03;;;;;;;28.65;16.15;;;;;;;-7.55;100.00;103318.09;5046849;28;20049;-73
2024/01/11 08:03:29;;;;;;;31.48;15.77;;;;;;;-7.52;100.00;103318.09;5046688;28;20045;-72
2024/01/11 08:05:55;;;;;;;27.70;12.43;;;;;;;-7.54;100.00;103312.06;5048238;28;20029;-73
2024/01/11 08:08:21;;;;;;;30.35;17.13;;;;;;;-7.45;100.00;103318.00;5047880;28;20033;-73
2024/01/11 08:10:49;;;;;;;26.80;14.05;;;;;;;-7.43;100.00;103321.44;5046806;28;20033;-73
2024/01/11 08:13:15;;;;;;;31.30;17.70;;;;;;;-7.40;100.00;103321.41;5048514;28;20025;-73
2024/01/11 08:15:41;;;;;;;33.72;17.67;;;;;;;-7.37;100.00;103321.34;5047948;28;20381;-73
2024/01/11 08:18:07;;;;;;;30.45;14.45;;;;;;;-7.34;100.00;103318.72;5048431;28;20032;-72
2024/01/11 08:20:33;;;;;;;28.77;13.88;;;;;;;-7.31;100.00;103319.56;5048248;28;20032;-73
2024/01/11 08:22:58;;;;;;;24.70;12.02;;;;;;;-7.28;100.00;103327.28;5048508;28;20037;-73
2024/01/11 08:25:23;;;;;;;26.92;12.93;;;;;;;-7.20;100.00;103331.53;5048452;28;20029;-73
2024/01/11 08:27:49;;;;;;;24.15;13.65;;;;;;;-7.15;100.00;103338.34;5048408;28;20392;-74
2024/01/11 08:30:15;;;;;;;25.23;13.30;;;;;;;-7.14;100.00;103321.06;5047770;28;20036;-73
2024/01/11 08:32:41;;;;;;;30.65;14.50;;;;;;;-7.04;100.00;103325.25;5046579;28;20049;-76
2024/01/11 08:35:09;;;;;;;28.70;12.15;;;;;;;-7.07;100.00;103308.00;5047043;28;20067;-75
2024/01/11 08:37:35;;;;;;;26.08;12.48;;;;;;;-6.94;100.00;103319.03;5046241;28;20420;-76
2024/01/11 08:40:00;;;;;;;27.30;13.35;;;;;;;-6.97;100.00;103306.09;5046205;28;20040;-74
2024/01/11 08:42:26;;;;;;;29.65;14.63;;;;;;;-6.84;100.00;103318.03;5046473;28;20033;-73
2024/01/11 08:44:52;;;;;;;32.97;15.13;;;;;;;-6.77;100.00;103329.16;5045723;28;20377;-73
2024/01/11 08:47:18;;;;;;;24.52;12.25;;;;;;;-6.73;100.00;103336.03;5046198;28;20021;-73
2024/01/11 08:49:44;;;;;;;29.52;14.48;;;;;;;-6.67;100.00;103338.50;5046340;28;20025;-73
2024/01/11 08:52:09;;;;;;;28.13;13.07;;;;;;;-6.58;100.00;103331.47;5046372;28;20832;-73
2024/01/11 08:54:35;;;;;;;26.45;15.50;;;;;;;-6.57;100.00;103331.44;5046264;28;20033;-74
2024/01/11 08:57:01;;;;;;;27.65;13.10;;;;;;;-6.45;100.00;103340.75;5044549;28;20036;-73
2024/01/11 08:59:26;;;;;;;28.67;15.07;;;;;;;-6.46;100.00;103326.09;5048288;28;20515;-74
2024/01/11 09:01:52;;;;;;;30.95;14.93;;;;;;;-6.40;100.00;103332.00;5029813;28;20049;-74
2024/01/11 09:04:18;;;;;;;27.42;13.75;;;;;;;-6.25;100.00;103348.22;5048066;28;20032;-74
2024/01/11 09:06:44;;;;;;;27.13;14.27;;;;;;;-6.19;100.00;103342.91;5048006;28;20658;-74
2024/01/11 09:09:10;;;;;;;32.35;14.25;;;;;;;-6.15;100.00;103342.00;5049682;28;20098;-75
2024/01/11 09:11:36;;;;;;;30.77;14.55;;;;;;;-6.08;100.00;103345.31;5051579;28;20029;-74
2024/01/11 09:14:04;;;;;;;28.80;14.10;;;;;;;-6.04;100.00;103353.03;5051714;28;20036;-74
2024/01/11 09:16:30;;;;;;;28.80;15.00;;;;;;;-5.97;100.00;103353.81;5051735;28;20035;-74
2024/01/11 09:18:56;;;;;;;27.30;15.23;;;;;;;-5.92;100.00;103359.75;5050117;28;20033;-74
2024/01/11 09:21:22;;;;;;;25.63;13.82;;;;;;;-5.83;100.00;103367.34;5051605;28;20032;-74
2024/01/11 09:23:47;;;;;;;30.55;15.63;;;;;;;-5.79;100.00;103365.53;5051413;28;20110;-74
2024/01/11 09:26:12;;;;;;;33.40;14.85;;;;;;;-5.66;100.00;103376.56;5050262;28;20029;-74
2024/01/11 09:28:38;;;;;;;34.00;16.48;;;;;;;-5.58;100.00;103374.69;5051358;28;20041;-74
2024/01/11 09:31:03;;;;;;;25.85;13.80;;;;;;;-5.54;100.00;103373.75;5050869;28;20127;-74
2024/01/11 09:33:29;;;;;;;30.98;14.75;;;;;;;-5.49;100.00;103371.91;5051260;28;20036;-74
2024/01/11 09:35:56;;;;;;;28.35;12.05;;;;;;;-5.41;100.00;103382.16;5051211;28;20391;-74
2024/01/11 09:38:22;;;;;;;30.27;16.65;;;;;;;-5.36;100.00;103386.38;5049958;28;20029;-74
2024/01/11 09:41:04;;;;;;;30.13;15.25;;;;;;;-5.28;100.00;103401.84;5051305;28;20083;-75
2024/01/11 09:43:33;;;;;;;32.45;15.80;;;;;;;-5.27;100.00;103400.94;5039609;28;20064;-74
2024/01/11 09:46:00;;;;;;;28.80;15.98;;;;;;;-5.19;100.00;103401.63;5049868;28;20047;-74
2024/01/11 09:48:26;;;;;;;33.60;15.02;;;;;;;-5.10;100.00;103400.59;5050908;28;20033;-74
2024/01/11 09:50:53;;;;;;;31.38;15.75;;;;;;;-5.07;100.00;103403.13;5051348;28;20025;-74
2024/01/11 09:53:20;;;;;;;29.45;15.32;;;;;;;-5.13;100.00;103391.13;5051157;28;20033;-74
2024/01/11 09:55:47;;;;;;;30.63;17.15;;;;;;;-4.91;100.00;103403.66;5051229;28;20029;-74
2024/01/11 09:58:14;;;;;;;30.58;15.57;;;;;;;-4.88;100.00;103394.03;5051167;28;20395;-74
2024/01/11 10:00:40;;;;;;;30.73;16.70;;;;;;;-4.73;100.00;103394.59;5033029;28;20068;-74
2024/01/11 10:03:06;;;;;;;36.53;19.95;;;;;;;-4.65;100.00;103396.13;5050993;28;20036;-75
2024/01/11 10:05:34;;;;;;;34.13;17.42;;;;;;;-4.58;100.00;103404.66;5050223;28;20079;-73
2024/01/11 10:07:59;;;;;;;27.95;15.02;;;;;;;-4.47;100.00;103407.88;5046996;28;20469;-75
2024/01/11 10:10:25;;;;;;;30.60;15.93;;;;;;;-4.40;100.00;103408.59;5048723;28;20037;-74
2024/01/11 10:12:51;;;;;;;29.13;15.90;;;;;;;-4.34;100.00;103408.44;5048951;28;20111;-74
2024/01/11 10:15:16;;;;;;;37.15;17.80;;;;;;;-4.22;100.00;103417.69;5048626;28;20033;-74
2024/01/11 10:17:44;;;;;;;33.53;17.00;;;;;;;-4.20;100.00;103408.09;5048818;28;20039;-74
2024/01/11 10:20:13;;;;;;;32.22;17.38;;;;;;;-4.06;100.00;103421.66;5047957;28;20496;-75
2024/01/11 10:22:49;;;;;;;32.60;16.25;;;;;;;-4.00;100.00;103426.72;5047776;28;20940;-74
2024/01/11 10:25:15;;;;;;;32.75;14.13;;;;;;;-3.86;100.00;103433.31;5048488;28;20037;-76
2024/01/11 10:27:43;;;;;;;35.38;17.45;;;;;;;-3.73;100.00;103436.47;5047020;28;20905;-77
2024/01/11 10:30:10;;;;;;;25.83;14.30;;;;;;;-3.63;100.00;103432.72;5049464;28;20403;-76
2024/01/11 10:32:35;;;;;;;29.85;16.05;;;;;;;-3.55;100.00;103433.38;5041167;28;20086;-76
2024/01/11 10:35:04;;;;;;;30.23;18.67;;;;;;;-3.53;100.00;103421.16;5048966;28;20060;-76
2024/01/11 10:37:35;;;;;;;28.10;15.85;;;;;;;-3.42;100.00;103441.75;5048743;28;20033;-76
2024/01/11 10:40:15;;;;;;;28.80;15.38;;;;;;;-3.34;100.00;103426.72;5048648;28;20550;-76
2024/01/11 10:42:45;;;;;;;30.75;16.45;;;;;;;-3.32;100.00;103407.53;5048305;28;20104;-76
2024/01/11 10:45:15;;;;;;;32.05;19.40;;;;;;;-3.18;100.00;103425.38;5049512;28;20120;-73
2024/01/11 10:47:53;;;;;;;28.10;14.85;;;;;;;-3.07;100.00;103417.25;5049992;28;20029;-73
2024/01/11 10:50:19;;;;;;;30.75;16.25;;;;;;;-3.03;100.00;103415.44;5050120;28;20024;-73
2024/01/11 10:52:57;;;;;;;28.23;16.42;;;;;;;-3.01;100.00;103396.22;5049939;28;20021;-73
2024/01/11 10:55:24;;;;;;;32.63;17.75;;;;;;;-2.93;100.00;103402.06;5049562;28;20033;-73
2024/01/11 10:57:51;;;;;;;31.17;15.75;;;;;;;-2.85;100.00;103404.44;5048514;28;20033;-73